Time;durP1;ratioP1;P1;durP2;ratioP2;P2;SDS_P1;SDS_P2;PMS_P1;PMS_P2;Temp;Humidity;BMP_temperature;BMP_pressure;BME280_temperature;BME280_humidity;BME280_pressure;Samples;Min_cycle;Max_cycle;Signal;HPM_P1;HPM_P2
2023/08/08 00:01:02;;;;;;;11.85;3.17;;;24.30;99.90;;;;;;5096284;28;20462;-72
2023/08/08 00:03:29;;;;;;;12.33;3.50;;;24.20;99.90;;;;;;5092385;28;20410;-71
2023/08/08 00:05:55;;;;;;;10.90;3.35;;;24.20;99.90;;;;;;5093277;28;20416;-72
2023/08/08 00:08:22;;;;;;;10.63;3.20;;;24.20;99.90;;;;;;5103443;27;20530;-72
2023/08/08 00:10:48;;;;;;;14.20;3.50;;;24.10;99.90;;;;;;5099022;28;20462;-71
2023/08/08 00:13:14;;;;;;;13.43;3.33;;;24.10;99.90;;;;;;5095643;28;20480;-72
2023/08/08 00:15:40;;;;;;;12.15;3.63;;;24.10;99.90;;;;;;5092256;28;20433;-72
2023/08/08 00:18:07;;;;;;;12.57;3.50;;;24.10;99.90;;;;;;5095323;28;20417;-72
2023/08/08 00:20:33;;;;;;;13.88;3.60;;;24.10;99.90;;;;;;5101246;28;20416;-72
2023/08/08 00:23:00;;;;;;;9.73;3.17;;;24.10;99.90;;;;;;5096928;28;20408;-72
2023/08/08 00:25:26;;;;;;;13.57;3.63;;;24.10;99.90;;;;;;5081071;28;20764;-71
2023/08/08 00:27:53;;;;;;;12.07;3.20;;;24.10;99.90;;;;;;5089690;28;20590;-72
2023/08/08 00:30:19;;;;;;;11.85;3.38;;;24.10;99.90;;;;;;5090671;27;20435;-72
2023/08/08 00:32:45;;;;;;;12.70;3.30;;;24.00;99.90;;;;;;5083435;28;20439;-72
2023/08/08 00:35:11;;;;;;;12.88;3.35;;;24.00;99.90;;;;;;5122044;27;20423;-72
2023/08/08 00:37:38;;;;;;;9.70;3.13;;;24.00;99.90;;;;;;5094887;28;20408;-72
2023/08/08 00:40:06;;;;;;;14.63;3.40;;;24.00;99.90;;;;;;5097043;28;20489;-72
2023/08/08 00:42:32;;;;;;;13.68;3.40;;;23.90;99.90;;;;;;5096673;28;20496;-72
2023/08/08 00:45:03;;;;;;;12.15;3.28;;;23.90;99.90;;;;;;5095782;28;20789;-72
2023/08/08 00:47:34;;;;;;;10.77;3.53;;;23.90;99.90;;;;;;5098888;27;20499;-73
2023/08/08 00:50:03;;;;;;;11.73;3.42;;;23.90;99.90;;;;;;5099387;28;20396;-72
2023/08/08 00:52:30;;;;;;;13.73;3.60;;;23.80;99.90;;;;;;5082546;28;20403;-73
2023/08/08 00:54:57;;;;;;;14.30;3.83;;;23.80;99.90;;;;;;5084271;28;20508;-72
2023/08/08 00:57:24;;;;;;;12.25;3.28;;;23.70;99.90;;;;;;5087047;28;20849;-72
2023/08/08 00:59:51;;;;;;;13.23;3.80;;;23.70;99.90;;;;;;5076050;28;20495;-72
2023/08/08 01:02:17;;;;;;;11.02;3.72;;;23.70;99.90;;;;;;5101833;27;20402;-72
2023/08/08 01:04:44;;;;;;;12.90;3.78;;;23.70;99.90;;;;;;5091975;28;20434;-72
2023/08/08 01:07:47;;;;;;;13.23;3.38;;;23.60;99.90;;;;;;5092229;28;20430;-72
2023/08/08 01:10:24;;;;;;;13.30;3.55;;;23.60;99.90;;;;;;5092833;28;20419;-71
2023/08/08 01:13:05;;;;;;;12.52;3.55;;;23.60;99.90;;;;;;5082106;28;20970;-72
2023/08/08 01:15:37;;;;;;;15.52;3.88;;;23.60;99.90;;;;;;5093519;28;20502;-72
2023/08/08 01:18:09;;;;;;;15.47;3.90;;;23.60;99.90;;;;;;5080377;28;20420;-72
2023/08/08 01:20:38;;;;;;;13.27;3.53;;;23.60;99.90;;;;;;5102035;27;20420;-72
2023/08/08 01:23:26;;;;;;;12.10;3.35;;;23.50;99.90;;;;;;5098526;28;20523;-72
2023/08/08 01:25:53;;;;;;;11.35;3.80;;;23.50;99.90;;;;;;5083404;28;20438;-72
2023/08/08 01:28:24;;;;;;;15.18;3.88;;;23.50;99.90;;;;;;5084254;28;20440;-72
2023/08/08 01:30:51;;;;;;;13.23;3.60;;;23.50;99.90;;;;;;5075619;28;20420;-72
2023/08/08 01:33:17;;;;;;;12.15;3.55;;;23.50;99.90;;;;;;5093134;28;20468;-72
2023/08/08 01:35:55;;;;;;;13.95;3.88;;;23.50;99.90;;;;;;5079356;28;20409;-72
2023/08/08 01:38:33;;;;;;;11.70;3.55;;;23.40;99.90;;;;;;5127698;27;20428;-72
2023/08/08 01:41:01;;;;;;;12.63;3.20;;;23.40;99.90;;;;;;5095666;28;20421;-72
2023/08/08 01:43:30;;;;;;;13.38;3.60;;;23.40;99.90;;;;;;5079192;28;20430;-71
2023/08/08 01:45:57;;;;;;;11.37;3.57;;;23.40;99.90;;;;;;5079234;28;20466;-72
2023/08/08 01:48:23;;;;;;;8.98;3.58;;;23.40;99.90;;;;;;5099049;28;21148;-71
2023/08/08 01:50:50;;;;;;;15.67;4.00;;;23.40;99.90;;;;;;5078198;28;20455;-72
2023/08/08 01:53:16;;;;;;;13.35;3.78;;;23.40;99.90;;;;;;5091418;28;20400;-71
2023/08/08 01:55:42;;;;;;;9.43;3.47;;;23.40;99.90;;;;;;5127194;27;20441;-71
2023/08/08 01:58:08;;;;;;;10.15;3.22;;;23.40;99.90;;;;;;5125214;27;20408;-71
2023/08/08 02:00:36;;;;;;;9.63;3.20;;;23.40;99.90;;;;;;5094140;28;20415;-71
2023/08/08 02:03:03;;;;;;;12.77;3.63;;;23.40;99.90;;;;;;5094601;28;20419;-72
2023/08/08 02:05:29;;;;;;;12.40;3.53;;;23.40;99.90;;;;;;5092163;28;20508;-71
2023/08/08 02:07:56;;;;;;;8.70;3.20;;;23.40;99.90;;;;;;5074177;28;20947;-72
2023/08/08 02:10:22;;;;;;;13.27;3.45;;;23.40;99.90;;;;;;5093707;28;20413;-71
2023/08/08 02:12:48;;;;;;;8.63;3.30;;;23.40;99.90;;;;;;5096985;28;20453;-72
2023/08/08 02:15:15;;;;;;;11.10;4.00;;;23.40;99.90;;;;;;5110799;28;20441;-73
2023/08/08 02:17:41;;;;;;;9.50;3.42;;;23.40;99.90;;;;;;5075054;28;20400;-72
2023/08/08 02:20:08;;;;;;;9.20;2.88;;;23.40;99.90;;;;;;5095843;28;20512;-72
2023/08/08 02:22:34;;;;;;;10.32;3.40;;;23.40;99.90;;;;;;5078653;28;20945;-72
2023/08/08 02:25:01;;;;;;;9.98;3.38;;;23.40;99.90;;;;;;5099195;28;20414;-72
2023/08/08 02:27:27;;;;;;;11.27;3.42;;;23.30;99.90;;;;;;5091304;28;20420;-72
2023/08/08 02:29:53;;;;;;;9.40;3.25;;;23.30;99.90;;;;;;5081876;28;20468;-72
2023/08/08 02:32:19;;;;;;;13.82;3.63;;;23.30;99.90;;;;;;5102171;27;20801;-72
2023/08/08 02:34:46;;;;;;;9.55;3.38;;;23.30;99.90;;;;;;5101320;28;20495;-72
2023/08/08 02:37:12;;;;;;;10.02;3.30;;;23.30;99.90;;;;;;5097322;28;20421;-72
2023/08/08 02:39:38;;;;;;;10.52;3.17;;;23.30;99.90;;;;;;5102125;28;20545;-72
2023/08/08 02:42:05;;;;;;;8.40;3.08;;;23.20;99.90;;;;;;5092498;28;20485;-71
2023/08/08 02:44:31;;;;;;;9.00;3.20;;;23.20;99.90;;;;;;5100263;28;20412;-72
2023/08/08 02:46:58;;;;;;;9.68;3.05;;;23.20;99.90;;;;;;5097985;28;20434;-72
2023/08/08 02:49:24;;;;;;;13.35;3.58;;;23.20;99.90;;;;;;5092959;28;20480;-72
2023/08/08 02:51:50;;;;;;;11.80;3.55;;;23.20;99.90;;;;;;5081616;28;20406;-72
2023/08/08 02:54:17;;;;;;;11.88;3.80;;;23.20;99.90;;;;;;5111270;27;20926;-72
2023/08/08 02:56:43;;;;;;;9.43;3.13;;;23.20;99.90;;;;;;5091729;28;20409;-72
2023/08/08 02:59:09;;;;;;;9.50;3.15;;;23.20;99.90;;;;;;5106686;27;20407;-72
2023/08/08 03:01:39;;;;;;;11.30;3.45;;;23.20;99.90;;;;;;5101291;28;20939;-72
2023/08/08 03:04:06;;;;;;;13.27;3.20;;;23.20;99.90;;;;;;5079835;28;20440;-72
2023/08/08 03:06:32;;;;;;;12.90;3.63;;;23.30;99.90;;;;;;5097429;28;20724;-72
2023/08/08 03:08:59;;;;;;;12.30;3.33;;;23.20;99.90;;;;;;5093159;28;20401;-72
2023/08/08 03:11:25;;;;;;;10.77;3.30;;;23.20;99.90;;;;;;5081771;28;20409;-72
2023/08/08 03:13:51;;;;;;;13.27;3.55;;;23.30;99.90;;;;;;5099756;28;20419;-72
2023/08/08 03:16:18;;;;;;;17.40;4.18;;;23.30;99.90;;;;;;5099068;28;20531;-72
2023/08/08 03:18:44;;;;;;;13.40;3.40;;;23.20;99.90;;;;;;5095682;27;20412;-72
2023/08/08 03:21:10;;;;;;;14.60;3.93;;;23.20;99.90;;;;;;5087017;28;20410;-72
2023/08/08 03:23:36;;;;;;;14.30;3.80;;;23.30;99.90;;;;;;5108966;27;20405;-72
2023/08/08 03:26:03;;;;;;;15.07;3.90;;;23.30;99.90;;;;;;5078217;28;20416;-71
2023/08/08 03:28:29;;;;;;;10.13;3.33;;;23.30;99.90;;;;;;5129829;27;20435;-71
2023/08/08 03:30:55;;;;;;;17.45;3.92;;;23.30;99.90;;;;;;5098888;28;20762;-71
2023/08/08 03:33:21;;;;;;;15.57;4.00;;;23.30;99.90;;;;;;5104011;27;20401;-72
2023/08/08 03:35:47;;;;;;;13.65;3.72;;;23.30;99.90;;;;;;5128400;27;20527;-72
2023/08/08 03:38:14;;;;;;;14.05;3.83;;;23.30;99.90;;;;;;5122484;27;20400;-72
2023/08/08 03:40:40;;;;;;;12.13;3.70;;;23.30;99.90;;;;;;5088076;28;20489;-72
2023/08/08 03:43:06;;;;;;;10.77;3.57;;;23.30;99.90;;;;;;5096472;28;20412;-72
2023/08/08 03:45:32;;;;;;;10.83;3.40;;;23.30;99.90;;;;;;5082895;28;20968;-72
2023/08/08 03:47:58;;;;;;;11.63;3.58;;;23.30;99.90;;;;;;5100147;27;20416;-72
2023/08/08 03:50:24;;;;;;;10.95;3.47;;;23.30;99.90;;;;;;5093947;28;20392;-72
2023/08/08 03:52:52;;;;;;;9.35;3.28;;;23.30;99.90;;;;;;5096345;27;20873;-72
2023/08/08 03:55:19;;;;;;;9.73;3.33;;;23.30;99.90;;;;;;5100072;28;20436;-72
2023/08/08 03:57:45;;;;;;;9.50;3.20;;;23.30;99.90;;;;;;5097075;27;20497;-72
2023/08/08 04:00:12;;;;;;;12.23;3.63;;;23.30;99.90;;;;;;5095346;28;21000;-72
2023/08/08 04:02:38;;;;;;;12.98;3.33;;;23.30;99.90;;;;;;5094121;28;20443;-72
2023/08/08 04:05:05;;;;;;;11.35;3.85;;;23.30;99.90;;;;;;5076092;28;20426;-72
2023/08/08 04:07:31;;;;;;;10.55;3.13;;;23.30;99.90;;;;;;5099748;28;20846;-72
2023/08/08 04:09:58;;;;;;;9.15;3.13;;;23.30;99.90;;;;;;5098259;28;20433;-72
2023/08/08 04:12:24;;;;;;;8.82;3.10;;;23.30;99.90;;;;;;5091036;28;20837;-72
2023/08/08 04:14:50;;;;;;;11.70;3.40;;;23.30;99.90;;;;;;5101117;28;21037;-72
2023/08/08 04:17:16;;;;;;;7.90;2.83;;;23.30;99.90;;;;;;5100787;28;20400;-72
2023/08/08 04:19:43;;;;;;;9.57;3.37;;;23.30;99.90;;;;;;5091534;28;20504;-72
2023/08/08 04:22:10;;;;;;;11.05;3.50;;;23.30;99.90;;;;;;5084059;28;20743;-72
2023/08/08 04:24:36;;;;;;;13.00;3.38;;;23.30;99.90;;;;;;5113009;27;20400;-72
2023/08/08 04:27:03;;;;;;;13.70;3.78;;;23.30;99.90;;;;;;5092036;28;20421;-72
2023/08/08 04:29:30;;;;;;;14.20;3.60;;;23.30;99.90;;;;;;5112671;27;20405;-72
2023/08/08 04:31:56;;;;;;;11.27;3.30;;;23.30;99.90;;;;;;5075329;28;20866;-72
2023/08/08 04:34:23;;;;;;;8.35;3.40;;;23.30;99.90;;;;;;5132820;27;21167;-72
2023/08/08 04:36:49;;;;;;;14.85;3.55;;;23.20;99.90;;;;;;5089412;28;20404;-72
2023/08/08 04:39:15;;;;;;;13.55;3.95;;;23.20;99.90;;;;;;5098181;27;20402;-72
2023/08/08 04:41:41;;;;;;;9.50;3.40;;;23.20;99.90;;;;;;5098945;28;20497;-72
2023/08/08 04:44:08;;;;;;;11.13;3.60;;;23.20;99.90;;;;;;5082779;28;20436;-72
2023/08/08 04:46:34;;;;;;;14.40;3.55;;;23.30;99.90;;;;;;5125894;27;20941;-71
2023/08/08 04:49:00;;;;;;;12.05;3.70;;;23.30;99.90;;;;;;5098591;28;20408;-71
2023/08/08 04:51:26;;;;;;;10.32;3.38;;;23.30;99.90;;;;;;5083461;28;20472;-71
2023/08/08 04:53:53;;;;;;;13.70;3.75;;;23.40;99.90;;;;;;5098464;28;20431;-71
2023/08/08 04:56:19;;;;;;;13.90;3.80;;;23.30;99.90;;;;;;5101353;28;20480;-71
2023/08/08 04:58:45;;;;;;;9.75;3.58;;;23.40;99.90;;;;;;5093775;28;20483;-71
2023/08/08 05:01:15;;;;;;;12.40;3.65;;;23.50;99.90;;;;;;5095847;27;20408;-72
2023/08/08 05:03:41;;;;;;;12.63;3.67;;;23.50;99.90;;;;;;5097715;28;21045;-72
2023/08/08 05:06:08;;;;;;;9.18;3.28;;;23.50;99.90;;;;;;5112926;27;20945;-71
2023/08/08 05:08:34;;;;;;;11.73;3.40;;;23.50;99.90;;;;;;5097948;28;20400;-72
2023/08/08 05:11:00;;;;;;;8.27;3.10;;;23.50;99.90;;;;;;5105950;27;20445;-72
2023/08/08 05:13:26;;;;;;;10.95;3.53;;;23.60;99.90;;;;;;5111690;27;20437;-72
2023/08/08 05:15:53;;;;;;;11.53;3.33;;;23.60;99.90;;;;;;5100205;27;20419;-72
2023/08/08 05:18:19;;;;;;;11.50;3.20;;;23.50;99.90;;;;;;5131582;27;20425;-72
2023/08/08 05:20:45;;;;;;;8.68;3.10;;;23.50;99.90;;;;;;5080100;28;20436;-72
2023/08/08 05:23:12;;;;;;;9.52;2.90;;;23.50;99.90;;;;;;5076292;28;20406;-72
2023/08/08 05:25:38;;;;;;;7.78;3.15;;;23.50;99.90;;;;;;5123940;27;20783;-72
2023/08/08 05:28:04;;;;;;;9.30;3.08;;;23.50;99.90;;;;;;5091322;28;20455;-71
2023/08/08 05:30:31;;;;;;;8.70;2.85;;;23.50;99.90;;;;;;5098261;27;20818;-72
2023/08/08 05:32:57;;;;;;;9.60;2.72;;;23.60;99.90;;;;;;5099619;28;20469;-72
2023/08/08 05:35:23;;;;;;;8.48;2.65;;;23.60;99.90;;;;;;5124416;27;20401;-72
2023/08/08 05:37:49;;;;;;;8.48;2.80;;;23.60;99.90;;;;;;5096285;28;20400;-72
2023/08/08 05:40:16;;;;;;;7.22;2.70;;;23.60;99.90;;;;;;5082063;28;20408;-72
2023/08/08 05:42:42;;;;;;;9.27;3.00;;;23.70;99.90;;;;;;5091544;28;20392;-72
2023/08/08 05:45:09;;;;;;;8.43;3.00;;;23.70;99.90;;;;;;5110597;27;20412;-73
2023/08/08 05:47:35;;;;;;;7.85;2.72;;;23.70;99.90;;;;;;5084668;28;20447;-72
2023/08/08 05:50:02;;;;;;;8.23;2.70;;;23.80;99.90;;;;;;5095688;28;20579;-72
2023/08/08 05:52:29;;;;;;;8.98;2.65;;;23.80;99.90;;;;;;5092696;28;20912;-72
2023/08/08 05:54:55;;;;;;;7.93;2.85;;;23.80;99.90;;;;;;5125218;27;20516;-72
2023/08/08 05:57:22;;;;;;;9.50;3.00;;;23.90;99.90;;;;;;5130052;27;21095;-72
2023/08/08 05:59:49;;;;;;;9.77;3.00;;;24.00;99.90;;;;;;5099223;28;20415;-73
2023/08/08 06:02:15;;;;;;;8.10;2.83;;;24.00;99.90;;;;;;5079021;28;20448;-72
2023/08/08 06:04:41;;;;;;;9.88;2.97;;;24.10;99.90;;;;;;5134067;27;20450;-72
2023/08/08 06:07:08;;;;;;;8.25;2.92;;;24.20;99.90;;;;;;5126268;27;20416;-71
2023/08/08 06:09:36;;;;;;;9.82;3.03;;;24.20;99.90;;;;;;5100420;28;20400;-71
2023/08/08 06:12:03;;;;;;;7.18;2.70;;;24.20;99.90;;;;;;5101558;28;21165;-72
2023/08/08 06:14:30;;;;;;;8.48;2.75;;;24.20;99.90;;;;;;5099110;27;20898;-72
2023/08/08 06:16:57;;;;;;;8.18;3.08;;;24.30;99.90;;;;;;5101038;28;20527;-72
2023/08/08 06:19:23;;;;;;;9.90;2.90;;;24.30;99.90;;;;;;5103107;28;20392;-72
2023/08/08 06:21:50;;;;;;;9.48;2.90;;;24.40;99.90;;;;;;5099780;27;20414;-72
2023/08/08 06:24:16;;;;;;;9.95;2.90;;;24.50;99.90;;;;;;5106614;27;20538;-72
2023/08/08 06:26:42;;;;;;;9.55;3.30;;;24.50;99.90;;;;;;5103921;27;20656;-72
2023/08/08 06:29:08;;;;;;;10.35;3.03;;;24.60;99.90;;;;;;5096067;28;20398;-72
2023/08/08 06:31:35;;;;;;;9.95;3.20;;;24.70;99.90;;;;;;5100798;28;20403;-72
2023/08/08 06:34:01;;;;;;;10.48;3.10;;;24.80;99.90;;;;;;5109397;27;20385;-72
2023/08/08 06:36:27;;;;;;;12.65;3.10;;;24.80;99.90;;;;;;5133305;27;20414;-73
2023/08/08 06:38:55;;;;;;;16.58;3.95;;;24.90;99.90;;;;;;5098163;27;20408;-74
2023/08/08 06:41:21;;;;;;;10.57;2.97;;;24.90;99.90;;;;;;5084735;28;20407;-73
2023/08/08 06:43:48;;;;;;;11.60;3.33;;;25.00;99.90;;;;;;5086032;28;20753;-72
2023/08/08 06:46:14;;;;;;;15.57;3.67;;;25.00;99.90;;;;;;5100052;28;22473;-72
2023/08/08 06:48:44;;;;;;;10.00;3.17;;;25.10;99.90;;;;;;5135767;27;20408;-72
2023/08/08 06:51:10;;;;;;;10.68;3.20;;;25.20;99.90;;;;;;5098834;28;20404;-72
2023/08/08 06:53:37;;;;;;;11.77;3.53;;;25.20;99.90;;;;;;5096649;27;20427;-72
2023/08/08 06:56:04;;;;;;;14.32;3.47;;;25.30;99.90;;;;;;5084900;28;20400;-72
2023/08/08 06:58:30;;;;;;;11.23;3.58;;;25.40;99.90;;;;;;5086458;28;20426;-72
2023/08/08 07:00:56;;;;;;;11.10;3.33;;;25.40;99.90;;;;;;5085598;28;20450;-72
2023/08/08 07:03:23;;;;;;;14.80;3.70;;;25.50;99.90;;;;;;5128568;27;20838;-72
2023/08/08 07:05:51;;;;;;;9.45;3.13;;;25.50;99.90;;;;;;5111620;27;20503;-72
2023/08/08 07:08:20;;;;;;;13.43;3.88;;;25.60;99.90;;;;;;5102913;27;20400;-72
2023/08/08 07:10:46;;;;;;;12.98;3.35;;;25.60;99.90;;;;;;5083347;28;20390;-72
2023/08/08 07:13:15;;;;;;;13.43;3.38;;;25.70;99.90;;;;;;5126913;27;20509;-72
2023/08/08 07:15:41;;;;;;;12.27;3.58;;;25.90;99.90;;;;;;5095536;28;20415;-72
2023/08/08 07:18:08;;;;;;;10.82;3.10;;;26.00;99.90;;;;;;5083995;28;20433;-73
2023/08/08 07:20:35;;;;;;;11.65;3.38;;;26.10;99.90;;;;;;5101306;28;20957;-73
2023/08/08 07:23:01;;;;;;;10.05;3.30;;;26.20;99.90;;;;;;5094984;28;20429;-74
2023/08/08 07:25:28;;;;;;;11.20;3.20;;;26.20;99.90;;;;;;5085552;28;20400;-72
2023/08/08 07:27:54;;;;;;;13.07;3.45;;;26.30;99.90;;;;;;5100064;28;20409;-72
2023/08/08 07:30:20;;;;;;;10.93;2.95;;;26.30;99.90;;;;;;5097245;28;20433;-72
2023/08/08 07:32:47;;;;;;;15.38;3.60;;;26.40;99.90;;;;;;5131656;27;20392;-72
2023/08/08 07:35:15;;;;;;;12.93;3.80;;;26.40;99.90;;;;;;5104382;27;20404;-73
2023/08/08 07:37:41;;;;;;;12.55;3.47;;;26.50;99.90;;;;;;5094456;28;20413;-73
2023/08/08 07:40:34;;;;;;;12.25;3.40;;;26.60;99.90;;;;;;5099046;28;20422;-73
2023/08/08 07:43:00;;;;;;;11.88;3.72;;;26.60;99.90;;;;;;5095163;28;20922;-72
2023/08/08 07:45:27;;;;;;;10.32;3.00;;;26.70;99.90;;;;;;5097422;28;20988;-73
2023/08/08 07:47:53;;;;;;;14.13;3.70;;;26.80;99.90;;;;;;5096512;28;20408;-73
2023/08/08 07:50:20;;;;;;;9.55;3.38;;;26.90;99.90;;;;;;5100296;28;20410;-71
2023/08/08 07:52:46;;;;;;;15.43;3.28;;;27.00;99.90;;;;;;5102522;27;20458;-71
2023/08/08 07:55:13;;;;;;;13.27;3.30;;;27.10;99.90;;;;;;5097899;27;20484;-71
2023/08/08 07:57:39;;;;;;;9.75;3.00;;;27.20;99.90;;;;;;5075598;28;20463;-71
2023/08/08 08:00:12;;;;;;;10.35;3.28;;;27.30;99.90;;;;;;5100746;28;20430;-71
2023/08/08 08:02:41;;;;;;;9.73;3.40;;;27.40;99.90;;;;;;5096901;27;20412;-71
2023/08/08 08:05:08;;;;;;;10.10;3.10;;;27.50;99.90;;;;;;5097695;28;20498;-71
2023/08/08 08:07:37;;;;;;;9.27;3.03;;;27.50;99.90;;;;;;5096460;28;20893;-71
2023/08/08 08:10:07;;;;;;;8.32;3.10;;;27.60;99.90;;;;;;5095200;28;20406;-71
2023/08/08 08:12:33;;;;;;;10.23;3.30;;;27.70;99.90;;;;;;5089628;28;20408;-71
2023/08/08 08:15:00;;;;;;;11.93;3.78;;;27.80;99.90;;;;;;5079972;28;20406;-71
2023/08/08 08:17:27;;;;;;;10.85;3.35;;;27.80;99.90;;;;;;5088783;28;20443;-71
2023/08/08 08:19:55;;;;;;;10.75;3.20;;;27.90;99.90;;;;;;5099407;27;20914;-70
2023/08/08 08:22:22;;;;;;;11.00;3.30;;;27.90;99.90;;;;;;5073816;28;20495;-71
2023/08/08 08:24:48;;;;;;;13.48;3.45;;;28.00;99.90;;;;;;5105636;27;20419;-71
2023/08/08 08:27:14;;;;;;;12.80;3.30;;;28.10;99.90;;;;;;5100498;28;20507;-71
2023/08/08 08:29:41;;;;;;;10.38;3.20;;;28.10;99.90;;;;;;5099521;28;20391;-71
2023/08/08 08:32:07;;;;;;;10.23;3.30;;;28.20;99.90;;;;;;5094065;28;20760;-71
2023/08/08 08:34:33;;;;;;;9.43;2.90;;;28.30;99.90;;;;;;5083610;28;20441;-71
2023/08/08 08:37:00;;;;;;;8.10;2.97;;;28.40;99.90;;;;;;5131968;27;20400;-71
2023/08/08 08:39:26;;;;;;;9.07;3.03;;;28.50;99.90;;;;;;5085701;28;20500;-71
2023/08/08 08:42:04;;;;;;;7.57;2.83;;;28.60;99.90;;;;;;5102759;27;20411;-71
2023/08/08 08:44:32;;;;;;;8.73;3.05;;;28.60;99.90;;;;;;5091529;28;20413;-70
2023/08/08 08:47:10;;;;;;;10.60;3.03;;;28.60;99.90;;;;;;5097361;28;20416;-71
2023/08/08 08:49:39;;;;;;;10.88;2.90;;;28.70;99.90;;;;;;5095391;28;20405;-70
2023/08/08 08:52:05;;;;;;;9.68;2.83;;;28.80;99.90;;;;;;5097922;28;20420;-70
2023/08/08 08:54:33;;;;;;;10.38;3.22;;;28.90;99.90;;;;;;5090708;27;20494;-70
2023/08/08 08:57:00;;;;;;;10.00;3.22;;;29.00;99.90;;;;;;5091312;28;21032;-70
2023/08/08 08:59:26;;;;;;;13.18;3.58;;;29.10;99.90;;;;;;5076386;27;20458;-71
2023/08/08 09:01:54;;;;;;;8.70;3.05;;;29.10;99.90;;;;;;5107805;27;20415;-71
2023/08/08 09:04:21;;;;;;;8.80;3.20;;;29.20;99.90;;;;;;5127780;27;20414;-70
2023/08/08 09:06:50;;;;;;;7.40;2.80;;;29.30;99.90;;;;;;5094444;28;20415;-71
2023/08/08 09:09:21;;;;;;;11.18;3.35;;;29.40;99.90;;;;;;5081673;28;20408;-71
2023/08/08 09:11:56;;;;;;;8.25;2.85;;;29.40;99.90;;;;;;5096182;27;20793;-71
2023/08/08 09:14:25;;;;;;;12.63;3.20;;;29.50;99.90;;;;;;5093246;28;20414;-70
2023/08/08 09:16:54;;;;;;;8.38;3.15;;;29.50;99.90;;;;;;5127161;27;20416;-70
2023/08/08 09:19:21;;;;;;;9.30;3.22;;;29.60;99.90;;;;;;5080481;28;20764;-70
2023/08/08 09:21:49;;;;;;;10.38;3.03;;;29.80;99.90;;;;;;5092975;28;21214;-70
2023/08/08 09:24:16;;;;;;;8.10;2.70;;;29.80;99.90;;;;;;5092635;28;20916;-70
2023/08/08 09:26:44;;;;;;;8.40;2.92;;;29.90;99.90;;;;;;5112036;27;21002;-70
2023/08/08 09:29:15;;;;;;;10.70;3.08;;;30.00;99.90;;;;;;5097119;28;20404;-70
2023/08/08 09:31:41;;;;;;;11.45;3.20;;;30.20;99.90;;;;;;5102851;28;20388;-70
2023/08/08 09:34:07;;;;;;;9.07;3.03;;;30.20;99.90;;;;;;5094174;28;20426;-70
2023/08/08 09:36:35;;;;;;;11.68;3.00;;;30.30;99.90;;;;;;5096696;28;20428;-70
2023/08/08 09:39:01;;;;;;;11.95;3.50;;;30.40;99.90;;;;;;5087207;28;20792;-70
2023/08/08 09:41:28;;;;;;;12.52;3.30;;;30.50;99.90;;;;;;5096180;28;20408;-70
2023/08/08 09:43:54;;;;;;;8.68;3.03;;;30.60;99.90;;;;;;5095979;28;20852;-70
2023/08/08 09:46:22;;;;;;;7.88;2.78;;;30.60;99.90;;;;;;5083529;28;21349;-70
2023/08/08 09:48:49;;;;;;;13.10;3.30;;;30.70;99.90;;;;;;5095734;28;20465;-70
2023/08/08 09:51:16;;;;;;;11.03;2.70;;;30.90;99.90;;;;;;5080946;28;20818;-71
2023/08/08 09:53:44;;;;;;;12.75;3.03;;;30.80;99.90;;;;;;5077651;28;20388;-70
2023/08/08 09:56:11;;;;;;;9.90;2.90;;;30.90;99.90;;;;;;5108465;28;20879;-70
2023/08/08 09:58:40;;;;;;;8.13;2.80;;;31.00;99.90;;;;;;5083091;28;20799;-70
2023/08/08 10:01:07;;;;;;;9.00;2.67;;;31.00;99.90;;;;;;5098412;28;20410;-70
2023/08/08 10:03:36;;;;;;;10.05;3.00;;;31.10;99.90;;;;;;5097999;28;20408;-71
2023/08/08 10:06:02;;;;;;;7.53;2.70;;;31.20;99.90;;;;;;5102176;28;20488;-70
2023/08/08 10:08:30;;;;;;;8.43;2.70;;;31.20;99.90;;;;;;5084023;28;20483;-71
2023/08/08 10:10:57;;;;;;;11.13;3.00;;;31.20;99.90;;;;;;5094231;28;20398;-70
2023/08/08 10:13:26;;;;;;;8.40;2.80;;;31.20;99.90;;;;;;5097863;28;20410;-71
2023/08/08 10:15:54;;;;;;;8.85;2.75;;;31.30;99.90;;;;;;5081801;28;20403;-70
2023/08/08 10:18:24;;;;;;;10.40;2.90;;;31.30;99.90;;;;;;5080290;28;20404;-70
2023/08/08 10:20:53;;;;;;;7.75;2.60;;;31.30;99.90;;;;;;5095355;28;20419;-70
2023/08/08 10:23:21;;;;;;;11.23;3.10;;;31.40;99.90;;;;;;5093739;28;20880;-71
2023/08/08 10:25:51;;;;;;;10.63;3.10;;;31.40;99.90;;;;;;5078701;28;20552;-71
2023/08/08 10:28:21;;;;;;;8.20;2.85;;;31.40;99.90;;;;;;5095181;28;20402;-70
2023/08/08 10:30:56;;;;;;;8.05;2.70;;;31.40;99.90;;;;;;5081593;28;20487;-71
2023/08/08 10:33:39;;;;;;;8.60;3.03;;;31.40;99.90;;;;;;5101332;28;21017;-71
2023/08/08 10:36:07;;;;;;;8.65;2.60;;;31.40;99.90;;;;;;5112100;28;20976;-70
2023/08/08 10:38:46;;;;;;;9.32;2.60;;;31.30;99.90;;;;;;5093875;28;20404;-71
2023/08/08 10:41:26;;;;;;;9.75;2.58;;;31.30;99.90;;;;;;5091849;28;20434;-71
2023/08/08 10:43:58;;;;;;;7.47;2.53;;;31.30;99.90;;;;;;5098701;28;20427;-71
2023/08/08 10:46:34;;;;;;;6.25;2.30;;;31.30;99.90;;;;;;5082771;28;20526;-70
2023/08/08 10:49:05;;;;;;;7.32;2.70;;;31.30;99.90;;;;;;5094268;28;20397;-71
2023/08/08 10:51:46;;;;;;;7.95;2.60;;;31.30;99.90;;;;;;5130970;27;20402;-70
2023/08/08 10:54:27;;;;;;;8.55;2.63;;;31.30;99.90;;;;;;5098248;28;20500;-72
2023/08/08 10:56:59;;;;;;;8.30;2.40;;;31.30;99.90;;;;;;5091061;28;20446;-70
2023/08/08 10:59:37;;;;;;;8.20;2.30;;;31.30;99.90;;;;;;5130395;27;20393;-70
2023/08/08 11:02:05;;;;;;;8.30;2.67;;;31.30;99.90;;;;;;5095848;28;20968;-70
2023/08/08 11:04:33;;;;;;;8.77;2.57;;;31.30;99.90;;;;;;5098087;28;20406;-70
2023/08/08 11:06:59;;;;;;;7.53;2.50;;;31.20;99.90;;;;;;5099824;28;20441;-71
2023/08/08 11:09:26;;;;;;;7.43;2.33;;;31.20;99.90;;;;;;5095344;27;20625;-70
2023/08/08 11:11:53;;;;;;;9.33;2.70;;;31.20;99.90;;;;;;5082302;28;20402;-71
2023/08/08 11:14:22;;;;;;;11.27;3.03;;;31.20;99.90;;;;;;5100877;28;20398;-70
2023/08/08 11:16:51;;;;;;;9.20;2.72;;;31.20;99.90;;;;;;5098427;28;20406;-70
2023/08/08 11:19:22;;;;;;;11.23;2.70;;;31.20;99.90;;;;;;5078892;28;20926;-70
2023/08/08 11:21:49;;;;;;;7.87;2.57;;;31.20;99.90;;;;;;5104089;28;20906;-71
2023/08/08 11:24:16;;;;;;;7.43;2.40;;;31.20;99.90;;;;;;5095556;28;20412;-71
2023/08/08 11:26:47;;;;;;;7.78;2.53;;;31.20;99.90;;;;;;5098197;28;20477;-71
2023/08/08 11:29:13;;;;;;;7.75;2.50;;;31.20;99.90;;;;;;5099564;28;20511;-71
2023/08/08 11:31:40;;;;;;;7.22;2.70;;;31.20;99.90;;;;;;5092155;28;20463;-71
2023/08/08 11:34:09;;;;;;;8.35;2.50;;;31.20;99.90;;;;;;5131749;27;20406;-71
2023/08/08 11:36:37;;;;;;;7.25;2.42;;;31.20;99.90;;;;;;5098156;28;20810;-71
2023/08/08 11:39:09;;;;;;;9.18;2.50;;;31.20;99.90;;;;;;5096266;28;21145;-71
2023/08/08 11:41:37;;;;;;;7.88;2.40;;;31.20;99.90;;;;;;5105887;27;20408;-71
2023/08/08 11:44:05;;;;;;;8.18;2.50;;;31.20;99.90;;;;;;5098127;28;20487;-71
2023/08/08 11:46:31;;;;;;;7.35;2.42;;;31.20;99.90;;;;;;5102728;28;20424;-71
2023/08/08 11:49:07;;;;;;;8.40;2.70;;;31.20;99.90;;;;;;5098637;28;20394;-71
2023/08/08 11:51:35;;;;;;;9.93;2.65;;;31.20;99.90;;;;;;5100205;27;20476;-71
2023/08/08 11:54:06;;;;;;;9.90;2.80;;;31.20;99.90;;;;;;5082714;28;20433;-71
2023/08/08 11:56:36;;;;;;;5.82;2.53;;;31.20;99.90;;;;;;5095535;27;20411;-71
2023/08/08 11:59:04;;;;;;;6.43;2.42;;;31.20;99.90;;;;;;5113993;27;20408;-71
2023/08/08 12:01:33;;;;;;;6.68;2.47;;;31.20;99.90;;;;;;5101925;28;20402;-71
2023/08/08 12:04:06;;;;;;;11.10;2.65;;;31.20;99.90;;;;;;5096737;28;20420;-71
2023/08/08 12:06:33;;;;;;;8.63;2.50;;;31.20;99.90;;;;;;5093663;27;20415;-71
2023/08/08 12:09:03;;;;;;;6.82;2.45;;;31.20;99.90;;;;;;5097341;28;20400;-71
2023/08/08 12:11:29;;;;;;;8.43;2.55;;;31.20;99.90;;;;;;5090710;28;20412;-71
2023/08/08 12:14:00;;;;;;;7.75;2.45;;;31.20;99.90;;;;;;5097977;28;20429;-71
2023/08/08 12:16:32;;;;;;;8.43;2.60;;;31.20;99.90;;;;;;5097798;28;20411;-71
2023/08/08 12:19:03;;;;;;;7.57;2.40;;;31.20;99.90;;;;;;5083472;28;20933;-71
2023/08/08 12:21:29;;;;;;;7.90;2.55;;;31.20;99.90;;;;;;5084388;28;20931;-71
2023/08/08 12:23:55;;;;;;;5.95;2.35;;;31.20;99.90;;;;;;5099364;27;20442;-71
2023/08/08 12:26:22;;;;;;;9.50;2.83;;;31.20;99.90;;;;;;5093545;28;20408;-71
2023/08/08 12:28:50;;;;;;;6.32;2.50;;;31.30;99.90;;;;;;5087675;28;20408;-71
2023/08/08 12:31:17;;;;;;;8.18;2.65;;;31.30;99.90;;;;;;5095712;28;20800;-71
2023/08/08 12:33:45;;;;;;;7.90;2.50;;;31.40;99.90;;;;;;5078465;28;20526;-71
2023/08/08 12:36:13;;;;;;;10.18;2.40;;;31.30;99.90;;;;;;5096959;28;20435;-71
2023/08/08 12:38:40;;;;;;;9.55;2.47;;;31.30;99.90;;;;;;5084385;28;20404;-72
2023/08/08 12:41:07;;;;;;;8.65;2.50;;;31.30;99.90;;;;;;5093531;28;20412;-71
2023/08/08 12:43:34;;;;;;;9.55;2.72;;;31.30;99.90;;;;;;5078606;28;20423;-71